Terminal Aerodrome Forecast
Issued by NWS Twin Cities, MN

Home | Current Version | Previous Version | Graphics & Text | Print | Product List | Glossary On
Versions: 1 2 3 4 5 6 7 8 9 10 11 12 13 14 15 16 17 18 19 20 21 22 23 24 25 26
000
FTUS43 KMPX 031740
TAFEAU
TAF
KEAU 031740Z 0318/0418 10008KT P6SM BKN010
     FM031900 10008KT P6SM SCT010
      TEMPO 0319/0320 BKN010
     FM032100 09007KT P6SM SKC
     FM040800 12006KT 4SM BR SCT004 BKN020
     FM041500 13007KT P6SM SCT100=

USA.gov is the U.S. government's official web portal to all federal, state and local government web resources and services.